createdAt,value
2022-12-11T00:00:55.159Z,100860.78
2022-12-11T00:03:23.288Z,100869.47
2022-12-11T00:05:51.292Z,100859.84
2022-12-11T00:08:19.277Z,100866.84
2022-12-11T00:10:49.849Z,100859.75
2022-12-11T00:13:17.967Z,100857.97
2022-12-11T00:15:47.300Z,100858.91
2022-12-11T00:18:15.527Z,100852.72
2022-12-11T00:20:43.600Z,100854.31
2022-12-11T00:23:11.995Z,100843.59
2022-12-11T00:25:44.054Z,100848.84
2022-12-11T00:28:12.121Z,100836.59
2022-12-11T00:30:41.711Z,100843.59
2022-12-11T00:33:12.324Z,100839.16
2022-12-11T00:35:40.653Z,100843.34
2022-12-11T00:38:08.648Z,100843.38
2022-12-11T00:40:37.178Z,100844.44
2022-12-11T00:43:05.335Z,100854.06
2022-12-11T00:45:37.259Z,100842.84
2022-12-11T00:48:05.787Z,100845.41
2022-12-11T00:50:35.271Z,100840.34
2022-12-11T00:53:03.731Z,100842.91
2022-12-11T00:55:31.755Z,100851.50
2022-12-11T00:57:59.718Z,100840.88
2022-12-11T01:00:27.730Z,100841.75
2022-12-11T01:02:55.761Z,100841.81
2022-12-11T01:05:23.873Z,100842.81
2022-12-11T01:07:53.438Z,100848.03
2022-12-11T01:10:27.553Z,100848.97
2022-12-11T01:12:58.053Z,100849.84
2022-12-11T01:15:28.478Z,100847.28
2022-12-11T01:17:57.525Z,100843.75
2022-12-11T01:20:27.010Z,100848.03
2022-12-11T01:23:00.018Z,100850.59
2022-12-11T01:25:28.878Z,100847.13
2022-12-11T01:27:57.272Z,100846.31
2022-12-11T01:30:26.757Z,100842.75
2022-12-11T01:32:54.780Z,100854.13
2022-12-11T01:35:23.157Z,100846.13
2022-12-11T01:37:51.228Z,100843.44
2022-12-11T01:40:21.617Z,100847.22
2022-12-11T01:42:49.928Z,100848.06
2022-12-11T01:45:36.442Z,100846.44
2022-12-11T01:48:09.394Z,100841.13
2022-12-11T01:50:42.156Z,100846.31
2022-12-11T01:53:13.167Z,100850.72
2022-12-11T01:55:42.613Z,100852.44
2022-12-11T01:58:12.865Z,100851.59
2022-12-11T02:00:41.163Z,100856.03
2022-12-11T02:03:09.540Z,100848.97
2022-12-11T02:05:38.115Z,100847.38
2022-12-11T02:08:08.487Z,100842.09
2022-12-11T02:10:54.392Z,100854.38
2022-12-11T02:13:27.954Z,100848.28
2022-12-11T02:16:03.341Z,100844.75
2022-12-11T02:18:38.080Z,100848.28
2022-12-11T02:21:11.945Z,100851.69
2022-12-11T02:24:24.675Z,100847.41
2022-12-11T02:27:12.382Z,100846.38
2022-12-11T02:29:50.985Z,100849.88
2022-12-11T02:32:23.941Z,100855.09
2022-12-11T02:34:59.124Z,100847.13
2022-12-11T02:37:30.541Z,100855.09
2022-12-11T02:39:58.839Z,100846.28
2022-12-11T02:42:32.327Z,100847.03
2022-12-11T02:45:04.202Z,100848.72
2022-12-11T02:47:34.087Z,100847.84
2022-12-11T02:50:04.924Z,100841.59
2022-12-11T02:52:35.365Z,100835.53
2022-12-11T02:55:05.228Z,100831.19
2022-12-11T02:57:39.659Z,100832.16
2022-12-11T03:00:10.943Z,100831.41
2022-12-11T03:02:39.975Z,100830.38
2022-12-11T03:05:09.304Z,100844.44
2022-12-11T03:07:40.326Z,100827.78
2022-12-11T03:10:10.409Z,100831.31
2022-12-11T03:12:41.442Z,100838.38
2022-12-11T03:15:14.516Z,100836.47
2022-12-11T03:17:51.469Z,100836.69
2022-12-11T03:20:29.667Z,100832.13
2022-12-11T03:23:05.363Z,100832.97
2022-12-11T03:25:39.595Z,100833.00
2022-12-11T03:28:12.283Z,100833.91
2022-12-11T03:30:43.072Z,100832.19
2022-12-11T03:33:14.960Z,100835.72
2022-12-11T03:35:47.889Z,100827.81
2022-12-11T03:38:20.864Z,100838.22
2022-12-11T03:40:52.677Z,100834.78
2022-12-11T03:43:22.169Z,100829.25
2022-12-11T03:45:53.170Z,100838.22
2022-12-11T03:48:22.615Z,100838.13
2022-12-11T03:50:51.693Z,100835.44
2022-12-11T03:53:20.722Z,100837.22
2022-12-11T03:55:49.411Z,100827.59
2022-12-11T03:58:17.397Z,100831.00
2022-12-11T04:00:45.587Z,100828.38
2022-12-11T04:03:15.844Z,100827.47
2022-12-11T04:05:46.035Z,100822.28
2022-12-11T04:08:14.905Z,100827.50
2022-12-11T04:10:43.449Z,100826.59
2022-12-11T04:13:11.926Z,100809.75
2022-12-11T04:15:40.088Z,100821.22
2022-12-11T04:18:26.881Z,100815.16
2022-12-11T04:21:14.368Z,100818.78
2022-12-11T04:24:00.007Z,100823.19
2022-12-11T04:26:28.328Z,100826.78
2022-12-11T04:28:56.338Z,100820.66
2022-12-11T04:31:24.558Z,100813.56
2022-12-11T04:33:53.266Z,100810.06
2022-12-11T04:36:22.786Z,100819.59
2022-12-11T04:38:50.771Z,100813.50
2022-12-11T04:41:19.114Z,100805.59
2022-12-11T04:43:47.094Z,100795.66
2022-12-11T04:46:16.951Z,100810.66
2022-12-11T04:48:46.074Z,100815.16
2022-12-11T04:51:14.787Z,100823.22
2022-12-11T04:53:44.614Z,100823.31
2022-12-11T04:56:16.482Z,100816.25
2022-12-11T04:58:45.000Z,100815.41
2022-12-11T05:01:15.343Z,100818.16
2022-12-11T05:03:44.191Z,100820.78
2022-12-11T05:06:13.137Z,100808.34
2022-12-11T05:08:42.943Z,100811.84
2022-12-11T05:11:14.259Z,100816.16
2022-12-11T05:13:42.345Z,100812.69
2022-12-11T05:16:12.752Z,100810.25
2022-12-11T05:18:41.075Z,100811.94
2022-12-11T05:21:11.259Z,100807.63
2022-12-11T05:23:41.651Z,100805.72
2022-12-11T05:26:15.028Z,100812.78
2022-12-11T05:28:43.126Z,100816.13
2022-12-11T05:31:15.068Z,100819.59
2022-12-11T05:33:43.520Z,100820.41
2022-12-11T05:36:17.238Z,100816.03
2022-12-11T05:38:45.638Z,100814.22
2022-12-11T05:41:17.511Z,100815.09
2022-12-11T05:43:45.808Z,100813.84
2022-12-11T05:46:16.784Z,100819.72
2022-12-11T05:48:46.164Z,100822.94
2022-12-11T05:51:15.231Z,100819.97
2022-12-11T05:53:44.672Z,100812.09
2022-12-11T05:56:16.496Z,100813.94
2022-12-11T05:58:45.706Z,100814.00
2022-12-11T06:01:15.861Z,100801.69
2022-12-11T06:03:43.865Z,100800.69
2022-12-11T06:06:12.055Z,100801.63
2022-12-11T06:08:40.095Z,100800.84
2022-12-11T06:11:08.547Z,100806.78
2022-12-11T06:13:37.873Z,100803.16
2022-12-11T06:16:08.495Z,100800.31
2022-12-11T06:18:37.796Z,100803.66
2022-12-11T06:21:13.711Z,100799.66
2022-12-11T06:23:42.513Z,100807.13
2022-12-11T06:26:11.278Z,100813.03
2022-12-11T06:28:40.822Z,100816.81
2022-12-11T06:31:09.046Z,100820.81
2022-12-11T06:33:37.660Z,100823.28
2022-12-11T06:36:07.557Z,100823.13
2022-12-11T06:38:35.556Z,100825.47
2022-12-11T06:41:05.655Z,100822.63
2022-12-11T06:43:34.639Z,100823.44
2022-12-11T06:46:06.273Z,100820.91
2022-12-11T06:48:34.575Z,100824.25
2022-12-11T06:51:06.312Z,100817.22
2022-12-11T06:53:34.472Z,100823.28
2022-12-11T06:56:03.926Z,100822.19
2022-12-11T06:58:32.119Z,100823.00
2022-12-11T07:01:00.176Z,100820.34
2022-12-11T07:03:29.634Z,100824.63
2022-12-11T07:06:01.391Z,100837.50
2022-12-11T07:08:29.878Z,100834.63
2022-12-11T07:11:04.268Z,100828.50
2022-12-11T07:13:32.255Z,100827.59
2022-12-11T07:16:01.862Z,100833.72
2022-12-11T07:18:31.755Z,100834.31
2022-12-11T07:21:00.418Z,100834.22
2022-12-11T07:23:29.260Z,100842.81
2022-12-11T07:25:57.786Z,100845.31
2022-12-11T07:28:26.259Z,100841.66
2022-12-11T07:30:54.295Z,100850.22
2022-12-11T07:33:22.299Z,100855.50
2022-12-11T07:35:51.605Z,100860.50
2022-12-11T07:38:19.536Z,100857.69
2022-12-11T07:40:47.515Z,100851.38
2022-12-11T07:43:15.466Z,100864.06
2022-12-11T07:45:43.596Z,100856.72
2022-12-11T07:48:12.743Z,100869.06
2022-12-11T07:50:40.709Z,100863.09
2022-12-11T07:53:10.065Z,100861.25
2022-12-11T07:55:38.170Z,100869.63
2022-12-11T07:58:06.289Z,100869.69
2022-12-11T08:00:34.328Z,100869.69
2022-12-11T08:03:02.353Z,100866.16
2022-12-11T08:05:30.531Z,100871.25
2022-12-11T08:07:58.533Z,100869.53
2022-12-11T08:10:27.974Z,100870.56
2022-12-11T08:12:55.930Z,100873.19
2022-12-11T08:15:23.936Z,100864.72
2022-12-11T08:17:52.001Z,100864.28
2022-12-11T08:20:20.130Z,100859.19
2022-12-11T08:22:48.066Z,100867.81
2022-12-11T08:25:16.174Z,100864.44
2022-12-11T08:27:45.573Z,100867.25
2022-12-11T08:30:14.359Z,100865.47
2022-12-11T08:32:42.476Z,100864.72
2022-12-11T08:35:11.099Z,100864.84
2022-12-11T08:37:40.113Z,100871.09
2022-12-11T08:40:10.803Z,100859.28
2022-12-11T08:42:39.027Z,100855.03
2022-12-11T08:45:10.005Z,100859.53
2022-12-11T08:47:38.553Z,100860.31
2022-12-11T08:50:07.443Z,100851.03
2022-12-11T08:52:35.878Z,100856.38
2022-12-11T08:55:04.134Z,100857.47
2022-12-11T08:57:32.161Z,100858.44
2022-12-11T09:00:00.120Z,100854.25
2022-12-11T09:02:29.547Z,100855.31
2022-12-11T09:04:57.551Z,100856.13
2022-12-11T09:07:26.370Z,100853.84
2022-12-11T09:09:55.807Z,100846.72
2022-12-11T09:12:23.835Z,100845.28
2022-12-11T09:14:51.834Z,100838.41
2022-12-11T09:17:19.797Z,100828.94
2022-12-11T09:19:49.106Z,100833.38
2022-12-11T09:22:17.135Z,100824.91
2022-12-11T09:24:46.212Z,100829.16
2022-12-11T09:27:14.248Z,100827.72
2022-12-11T09:29:42.324Z,100826.69
2022-12-11T09:32:10.339Z,100821.75
2022-12-11T09:34:38.333Z,100818.91
2022-12-11T09:37:07.711Z,100809.25
2022-12-11T09:39:36.056Z,100812.38
2022-12-11T09:42:10.323Z,100817.59
2022-12-11T09:44:47.436Z,100820.31
2022-12-11T09:47:21.833Z,100817.66
2022-12-11T09:49:54.379Z,100821.31
2022-12-11T09:52:32.886Z,100819.72
2022-12-11T09:55:04.091Z,100818.97
2022-12-11T09:57:44.519Z,100803.41
2022-12-11T10:00:21.288Z,100802.78
2022-12-11T10:03:06.876Z,100809.00
2022-12-11T10:05:42.481Z,100811.00
2022-12-11T10:08:19.755Z,100811.06
2022-12-11T10:10:56.254Z,100812.06
2022-12-11T10:13:35.431Z,100810.41
2022-12-11T10:16:13.644Z,100809.50
2022-12-11T10:18:42.266Z,100800.66
2022-12-11T10:21:11.194Z,100804.47
2022-12-11T10:23:45.278Z,100806.22
2022-12-11T10:26:18.105Z,100802.06
2022-12-11T10:28:46.386Z,100793.47
2022-12-11T10:31:19.107Z,100792.66
2022-12-11T10:33:57.044Z,100792.66
2022-12-11T10:36:30.237Z,100789.16
2022-12-11T10:39:00.188Z,100784.81
2022-12-11T10:41:37.765Z,100784.94
2022-12-11T10:44:17.505Z,100787.56
2022-12-11T10:46:46.067Z,100784.19
2022-12-11T10:49:27.073Z,100781.50
2022-12-11T10:51:56.140Z,100777.22
2022-12-11T10:54:34.599Z,100778.97
2022-12-11T10:57:04.181Z,100781.72
2022-12-11T10:59:38.486Z,100776.50
2022-12-11T11:02:08.493Z,100772.34
2022-12-11T11:04:39.263Z,100781.13
2022-12-11T11:07:15.349Z,100771.47
2022-12-11T11:09:44.730Z,100779.44
2022-12-11T11:12:21.487Z,100779.47
2022-12-11T11:15:00.605Z,100767.34
2022-12-11T11:17:34.466Z,100767.53
2022-12-11T11:20:15.329Z,100768.50
2022-12-11T11:22:46.720Z,100762.44
2022-12-11T11:25:21.383Z,100755.56
2022-12-11T11:27:52.813Z,100758.25
2022-12-11T11:30:23.527Z,100756.53
2022-12-11T11:32:55.220Z,100750.38
2022-12-11T11:35:25.531Z,100756.59
2022-12-11T11:38:06.742Z,100752.50
2022-12-11T11:40:42.633Z,100748.09
2022-12-11T11:43:19.825Z,100742.00
2022-12-11T11:45:54.652Z,100742.03
2022-12-11T11:48:34.208Z,100745.47
2022-12-11T11:51:14.342Z,100729.56
2022-12-11T11:53:42.770Z,100733.94
2022-12-11T11:56:23.196Z,100730.56
2022-12-11T11:58:59.267Z,100721.94
2022-12-11T12:01:27.745Z,100720.38
2022-12-11T12:03:56.643Z,100731.72
2022-12-11T12:06:37.086Z,100735.25
2022-12-11T12:09:19.143Z,100726.41
2022-12-11T12:11:54.326Z,100718.56
2022-12-11T12:14:51.626Z,100720.41
2022-12-11T12:17:23.438Z,100722.25
2022-12-11T12:20:02.842Z,100713.53
2022-12-11T12:22:49.638Z,100728.50
2022-12-11T12:25:23.614Z,100728.66
2022-12-11T12:28:00.576Z,100731.19
2022-12-11T12:30:38.591Z,100720.75
2022-12-11T12:33:23.079Z,100731.19
2022-12-11T12:35:59.821Z,100725.03
2022-12-11T12:38:43.751Z,100726.75
2022-12-11T12:41:19.583Z,100723.44
2022-12-11T12:44:05.256Z,100737.31
2022-12-11T12:46:44.874Z,100731.34
2022-12-11T12:49:17.356Z,100735.97
2022-12-11T12:51:46.280Z,100732.81
2022-12-11T12:54:18.787Z,100730.47
2022-12-11T12:56:47.653Z,100735.91
2022-12-11T12:59:25.287Z,100727.44
2022-12-11T13:01:57.083Z,100732.78
2022-12-11T13:04:55.841Z,100729.41
2022-12-11T13:07:29.747Z,100729.66
2022-12-11T13:10:08.119Z,100727.00
2022-12-11T13:12:43.717Z,100716.50
2022-12-11T13:15:40.732Z,100720.97
2022-12-11T13:18:34.891Z,100718.34
2022-12-11T13:21:04.105Z,100718.44
2022-12-11T13:23:34.521Z,100720.19
2022-12-11T13:26:05.311Z,100733.25
2022-12-11T13:28:46.793Z,100724.53
2022-12-11T13:31:34.867Z,100729.78
2022-12-11T13:34:16.292Z,100730.66
2022-12-11T13:36:49.133Z,100733.28
2022-12-11T13:39:20.068Z,100731.47
2022-12-11T13:41:51.526Z,100734.19
2022-12-11T13:44:24.719Z,100734.97
2022-12-11T13:46:56.053Z,100736.69
2022-12-11T13:49:26.756Z,100737.63
2022-12-11T13:51:57.602Z,100734.09
2022-12-11T13:54:27.149Z,100733.16
2022-12-11T13:56:57.143Z,100739.38
2022-12-11T13:59:27.621Z,100736.72
2022-12-11T14:01:59.780Z,100731.44
2022-12-11T14:04:29.134Z,100733.25
2022-12-11T14:06:59.851Z,100740.16
2022-12-11T14:09:29.508Z,100740.06
2022-12-11T14:12:00.169Z,100736.50
2022-12-11T14:14:41.327Z,100731.13
2022-12-11T14:17:15.777Z,100744.91
2022-12-11T14:19:48.757Z,100743.84
2022-12-11T14:22:21.762Z,100747.16
2022-12-11T14:24:51.525Z,100752.38
2022-12-11T14:27:20.164Z,100753.06
2022-12-11T14:29:48.432Z,100754.78
2022-12-11T14:32:25.298Z,100751.25
2022-12-11T14:34:55.335Z,100759.00
2022-12-11T14:37:26.392Z,100758.84
2022-12-11T14:40:01.141Z,100751.88
2022-12-11T14:42:32.900Z,100757.91
2022-12-11T14:45:05.638Z,100756.13
2022-12-11T14:47:40.379Z,100750.81
2022-12-11T14:50:15.414Z,100749.91
2022-12-11T14:52:48.283Z,100753.38
2022-12-11T14:55:19.046Z,100750.78
2022-12-11T14:57:50.118Z,100756.03
2022-12-11T15:00:27.164Z,100748.16
2022-12-11T15:03:02.355Z,100733.19
2022-12-11T15:05:37.176Z,100750.88
2022-12-11T15:08:24.870Z,100748.34
2022-12-11T15:11:02.982Z,100744.84
2022-12-11T15:13:31.793Z,100751.84
2022-12-11T15:16:01.098Z,100744.84
2022-12-11T15:18:33.859Z,100746.41
2022-12-11T15:21:05.162Z,100757.09
2022-12-11T15:23:36.363Z,100752.75
2022-12-11T15:26:04.618Z,100758.72
2022-12-11T15:28:34.753Z,100750.84
2022-12-11T15:31:05.409Z,100763.72
2022-12-11T15:33:34.960Z,100755.84
2022-12-11T15:36:05.375Z,100760.16
2022-12-11T15:38:36.752Z,100761.09
2022-12-11T15:41:05.662Z,100762.81
2022-12-11T15:43:37.220Z,100761.97
2022-12-11T15:46:07.204Z,100757.69
2022-12-11T15:48:36.761Z,100751.50
2022-12-11T15:51:04.950Z,100757.63
2022-12-11T15:53:32.899Z,100752.34
2022-12-11T15:56:01.013Z,100753.91
2022-12-11T15:58:29.475Z,100749.59
2022-12-11T16:00:58.355Z,100738.03
2022-12-11T16:03:26.867Z,100754.84
2022-12-11T16:05:56.193Z,100754.88
2022-12-11T16:08:25.326Z,100747.88
2022-12-11T16:10:55.388Z,100748.69
2022-12-11T16:13:23.664Z,100753.06
2022-12-11T16:15:53.722Z,100746.91
2022-12-11T16:18:23.156Z,100742.53
2022-12-11T16:20:52.492Z,100752.00
2022-12-11T16:23:22.042Z,100750.09
2022-12-11T16:25:50.700Z,100751.56
2022-12-11T16:28:21.509Z,100754.03
2022-12-11T16:30:49.904Z,100759.13
2022-12-11T16:33:18.307Z,100757.31
2022-12-11T16:35:46.269Z,100758.22
2022-12-11T16:38:14.213Z,100759.06
2022-12-11T16:40:43.592Z,100759.84
2022-12-11T16:43:11.659Z,100761.50
2022-12-11T16:45:39.876Z,100758.88
2022-12-11T16:48:07.944Z,100752.75
2022-12-11T16:50:36.449Z,100757.16
2022-12-11T16:53:04.498Z,100751.09
2022-12-11T16:55:32.438Z,100760.69
2022-12-11T16:58:01.792Z,100755.47
2022-12-11T17:00:29.752Z,100763.41
2022-12-11T17:02:57.905Z,100759.19
2022-12-11T17:05:26.063Z,100761.00
2022-12-11T17:07:54.119Z,100763.66
2022-12-11T17:10:22.083Z,100770.69
2022-12-11T17:12:50.069Z,100761.19
2022-12-11T17:15:19.714Z,100763.84
2022-12-11T17:17:47.669Z,100766.38
2022-12-11T17:20:15.744Z,100768.13
2022-12-11T17:22:43.769Z,100772.47
2022-12-11T17:25:11.962Z,100770.69
2022-12-11T17:27:40.404Z,100775.88
2022-12-11T17:30:09.970Z,100773.16
2022-12-11T17:32:39.467Z,100775.50
2022-12-11T17:35:08.074Z,100781.53
2022-12-11T17:37:36.085Z,100768.41
2022-12-11T17:40:06.097Z,100768.50
2022-12-11T17:42:34.781Z,100767.78
2022-12-11T17:45:02.849Z,100772.94
2022-12-11T17:47:30.847Z,100765.97
2022-12-11T17:50:00.247Z,100760.78
2022-12-11T17:52:34.016Z,100757.22
2022-12-11T17:55:03.107Z,100762.53
2022-12-11T17:57:31.094Z,100752.06
2022-12-11T17:59:59.102Z,100754.66
2022-12-11T18:02:27.323Z,100755.44
2022-12-11T18:04:55.379Z,100764.09
2022-12-11T18:07:25.230Z,100761.47
2022-12-11T18:09:53.256Z,100762.38
2022-12-11T18:12:21.327Z,100752.66
2022-12-11T18:14:49.316Z,100750.81
2022-12-11T18:17:17.339Z,100760.44
2022-12-11T18:19:46.293Z,100761.97
2022-12-11T18:22:14.365Z,100773.44
2022-12-11T18:24:44.575Z,100770.13
2022-12-11T18:27:14.458Z,100771.75
2022-12-11T18:29:42.579Z,100771.75
2022-12-11T18:32:10.554Z,100768.47
2022-12-11T18:34:38.617Z,100781.59
2022-12-11T18:37:07.123Z,100768.50
2022-12-11T18:39:35.365Z,100774.47
2022-12-11T18:42:31.820Z,100772.75
2022-12-11T18:44:53.045Z,100773.59
2022-12-11T18:47:21.709Z,100775.28
2022-12-11T18:49:49.813Z,100783.22
2022-12-11T18:52:18.092Z,100777.13
2022-12-11T18:54:47.273Z,100769.19
2022-12-11T18:57:16.782Z,100774.50
2022-12-11T18:59:44.944Z,100772.75
2022-12-11T19:02:13.290Z,100780.69
2022-12-11T19:04:41.291Z,100774.72
2022-12-11T19:07:09.280Z,100782.72
2022-12-11T19:09:38.507Z,100782.00
2022-12-11T19:12:07.633Z,100776.00
2022-12-11T19:14:37.076Z,100787.41
2022-12-11T19:17:05.357Z,100793.59
2022-12-11T19:19:33.390Z,100792.75
2022-12-11T19:22:01.394Z,100787.53
2022-12-11T19:24:29.436Z,100795.31
2022-12-11T19:26:58.334Z,100790.22
2022-12-11T19:29:29.004Z,100791.88
2022-12-11T19:31:58.394Z,100791.09
2022-12-11T19:34:26.558Z,100795.59
2022-12-11T19:36:55.003Z,100798.25
2022-12-11T19:39:23.121Z,100802.69
2022-12-11T19:41:51.152Z,100794.06
2022-12-11T19:44:19.406Z,100779.09
2022-12-11T19:46:47.484Z,100792.38
2022-12-11T19:49:17.007Z,100794.97
2022-12-11T19:51:45.564Z,100791.56
2022-12-11T19:54:16.442Z,100787.19
2022-12-11T19:56:44.774Z,100783.69
2022-12-11T19:59:16.708Z,100786.44
2022-12-11T20:01:47.924Z,100780.34
2022-12-11T20:04:19.956Z,100782.09
2022-12-11T20:06:48.424Z,100779.47
2022-12-11T20:09:17.026Z,100784.63
2022-12-11T20:11:47.316Z,100781.91
2022-12-11T20:14:21.311Z,100775.84
2022-12-11T20:19:39.234Z,100787.25
2022-12-11T20:22:07.531Z,100788.19
2022-12-11T20:24:35.909Z,100777.75
2022-12-11T20:27:04.495Z,100779.47
2022-12-11T20:29:32.555Z,100777.75
2022-12-11T20:32:00.716Z,100778.72
2022-12-11T20:34:28.976Z,100781.22
2022-12-11T20:37:00.181Z,100780.31
2022-12-11T20:39:28.989Z,100781.19
2022-12-11T20:41:56.990Z,100776.91
2022-12-11T20:44:24.952Z,100788.22
2022-12-11T20:46:52.954Z,100785.63
2022-12-11T20:49:20.938Z,100782.22
2022-12-11T20:51:48.932Z,100783.97
2022-12-11T20:54:18.282Z,100783.97
2022-12-11T20:56:46.529Z,100777.81
2022-12-11T20:59:14.579Z,100779.59
2022-12-11T21:01:42.618Z,100782.19
2022-12-11T21:04:10.783Z,100785.72
2022-12-11T21:06:40.666Z,100780.34
2022-12-11T21:09:10.312Z,100783.81
2022-12-11T21:11:39.741Z,100778.72
2022-12-11T21:14:08.026Z,100777.81
2022-12-11T21:16:37.708Z,100782.16
2022-12-11T21:19:06.699Z,100778.75
2022-12-11T21:21:36.762Z,100776.22
2022-12-11T21:24:05.146Z,100777.16
2022-12-11T21:26:33.433Z,100771.94
2022-12-11T21:29:02.819Z,100774.53
2022-12-11T21:31:32.584Z,100782.38
2022-12-11T21:34:00.600Z,100778.00
2022-12-11T21:36:28.894Z,100782.28
2022-12-11T21:38:56.956Z,100777.00
2022-12-11T21:41:26.079Z,100777.91
2022-12-11T21:45:25.514Z,100777.03
2022-12-11T21:46:46.200Z,100777.84
2022-12-11T21:49:14.182Z,100778.66
2022-12-11T21:51:47.028Z,100780.38
2022-12-11T21:54:17.728Z,100784.78
2022-12-11T21:56:46.209Z,100780.44
2022-12-11T21:59:14.758Z,100777.81
2022-12-11T22:01:45.843Z,100784.00
2022-12-11T22:04:16.458Z,100789.22
2022-12-11T22:06:47.093Z,100784.06
2022-12-11T22:09:16.439Z,100786.50
2022-12-11T22:11:45.142Z,100790.00
2022-12-11T22:14:13.619Z,100794.28
2022-12-11T22:16:42.181Z,100796.03
2022-12-11T22:19:10.540Z,100796.03
2022-12-11T22:21:39.932Z,100799.53
2022-12-11T22:24:08.499Z,100796.03
2022-12-11T22:26:36.477Z,100790.88
2022-12-11T22:29:04.565Z,100787.44
2022-12-11T22:31:32.975Z,100785.72
2022-12-11T22:34:01.049Z,100779.47
2022-12-11T22:36:29.040Z,100783.91
2022-12-11T22:38:58.359Z,100784.72
2022-12-11T22:41:29.307Z,100787.34
2022-12-11T22:43:58.995Z,100791.59
2022-12-11T22:46:29.780Z,100789.72
2022-12-11T22:48:59.417Z,100789.66
2022-12-11T22:51:27.446Z,100792.34
2022-12-11T22:53:55.400Z,100796.66
2022-12-11T22:56:25.116Z,100788.84
2022-12-11T22:58:53.115Z,100788.00
2022-12-11T23:01:23.596Z,100796.69
2022-12-11T23:03:52.018Z,100793.25
2022-12-11T23:06:21.667Z,100801.97
2022-12-11T23:08:50.209Z,100794.88
2022-12-11T23:11:21.879Z,100795.72
2022-12-11T23:13:51.344Z,100798.47
2022-12-11T23:16:19.451Z,100798.44
2022-12-11T23:18:47.884Z,100795.53
2022-12-11T23:21:16.049Z,100798.16
2022-12-11T23:23:44.118Z,100801.59
2022-12-11T23:26:14.364Z,100807.53
2022-12-11T23:28:42.711Z,100800.53
2022-12-11T23:31:12.428Z,100796.97
2022-12-11T23:33:40.824Z,100801.34
2022-12-11T23:36:09.831Z,100795.88
2022-12-11T23:38:38.190Z,100792.38
2022-12-11T23:41:06.987Z,100786.22
2022-12-11T23:43:36.298Z,100786.97
2022-12-11T23:46:04.962Z,100793.19
2022-12-11T23:48:34.500Z,100800.25
2022-12-11T23:51:04.054Z,100803.75
2022-12-11T23:53:32.061Z,100797.78
2022-12-11T23:56:05.567Z,100799.47
2022-12-11T23:58:33.766Z,100802.94
